• Join FlightAware (Why Join?)
  • Login
  • US Flag 
07:43AM EDT


 

Airport Tracker/Info


-or-


 

Live Flight TrackerFlight Track Log ✈ CHB6292 ✈ 23-Aug-2014 ✈ ZSAM / XMN - ZUCK / CKG

Flight Track Log - Related Links

Times and Time Zones

All times are in EDT time to prevent confusion due to time zone crossing. See the CHB6292 flight status page for this flight to view local times or setup timezone preferences in your user account.

Time Position Orientation Groundspeed Altitude Reporting Facility
EDT Latitude Longitude Course Direction KTS MPH feet Rate Location/Type
10:16PM 24.9517 117.3254 299° West  Level Estimated
10:17PM 25.0096 117.2104 299° West  Level Estimated
10:18PM 25.0484 117.1331 299° West  Level Estimated
10:19PM 25.0872 117.0557 299° West  Level Estimated
10:20PM 25.1259 116.9783 299° West  Level Estimated
10:21PM 25.1646 116.9009 299° West  Level Estimated
10:22PM 25.2033 116.8234 299° West  Level Estimated
10:23PM 25.2419 116.7458 299° West  Level Estimated
10:24PM 25.2805 116.6683 299° West  Level Estimated
10:25PM 25.3190 116.5906 299° West  Level Estimated
10:26PM 25.3575 116.5129 299° West  Level Estimated
10:27PM 25.3959 116.4352 299° West  Level Estimated
10:28PM 25.4343 116.3574 299° West  Level Estimated
10:29PM 25.4727 116.2796 299° West  Level Estimated
10:30PM 25.5110 116.2017 299° West  Level Estimated
10:31PM 25.5493 116.1237 299° West  Level Estimated
10:32PM 25.5875 116.0458 299° West  Level Estimated
10:33PM 25.6257 115.9677 299° West  Level Estimated
10:34PM 25.6639 115.8896 298° West  Level Estimated
10:35PM 25.7020 115.8115 298° West  Level Estimated
10:36PM 25.7401 115.7333 298° West  Level Estimated
10:37PM 25.7781 115.6551 298° West  Level Estimated
10:38PM 25.8161 115.5768 298° West  Level Estimated
10:39PM 25.8541 115.4984 298° West  Level Estimated
10:40PM 25.8920 115.4201 298° West  Level Estimated
10:41PM 25.9299 115.3416 298° West  Level Estimated
10:42PM 25.9677 115.2631 298° West  Level Estimated
10:43PM 26.0055 115.1846 298° West  Level Estimated
10:44PM 26.0432 115.1060 298° West  Level Estimated
10:45PM 26.0809 115.0274 298° West  Level Estimated
10:46PM 26.1186 114.9487 298° West  Level Estimated
10:47PM 26.1562 114.8699 298° West  Level Estimated
10:48PM 26.1938 114.7911 298° West  Level Estimated
10:49PM 26.2313 114.7123 298° West  Level Estimated
10:50PM 26.2688 114.6334 298° West  Level Estimated
10:51PM 26.3062 114.5545 298° West  Level Estimated
10:52PM 26.3436 114.4754 298° West  Level Estimated
10:53PM 26.3810 114.3964 298° West  Level Estimated
10:54PM 26.4183 114.3173 298° West  Level Estimated
10:55PM 26.4555 114.2382 298° West  Level Estimated
10:56PM 26.4928 114.1590 298° West  Level Estimated
10:57PM 26.5299 114.0797 298° West  Level Estimated
10:58PM 26.5671 114.0004 298° West  Level Estimated
10:59PM 26.6042 113.9211 298° West  Level Estimated
11:00PM 26.6412 113.8416 298° West  Level Estimated
11:01PM 26.6782 113.7622 298° West  Level Estimated
11:02PM 26.7152 113.6827 298° West  Level Estimated
11:03PM 26.7521 113.6031 297° West  Level Estimated
11:04PM 26.7890 113.5235 297° West  Level Estimated
11:05PM 26.8258 113.4438 297° West  Level Estimated
11:06PM 26.8626 113.3641 297° West  Level Estimated
11:07PM 26.8993 113.2843 297° West  Level Estimated
11:08PM 26.9360 113.2045 297° West  Level Estimated
11:09PM 26.9727 113.1247 297° West  Level Estimated
11:10PM 27.0093 113.0447 297° West  Level Estimated
11:11PM 27.0458 112.9648 297° West  Level Estimated
11:12PM 27.0823 112.8847 297° West  Level Estimated
11:13PM 27.1188 112.8047 297° West  Level Estimated
11:14PM 27.1552 112.7245 297° West  Level Estimated
11:15PM 27.1916 112.6443 297° West  Level Estimated
11:16PM 27.2279 112.5641 297° West  Level Estimated
11:17PM 27.2642 112.4838 297° West  Level Estimated
11:18PM 27.3004 112.4035 297° West  Level Estimated
11:19PM 27.3366 112.3231 297° West  Level Estimated
11:20PM 27.3728 112.2426 297° West  Level Estimated
11:21PM 27.4089 112.1621 297° West  Level Estimated
11:22PM 27.4449 112.0816 297° West  Level Estimated
11:23PM 27.4809 112.0010 297° West  Level Estimated
11:24PM 27.5169 111.9203 297° West  Level Estimated
11:25PM 27.5528 111.8396 297° West  Level Estimated
11:26PM 27.5887 111.7589 297° West  Level Estimated
11:27PM 27.6245 111.6780 297° West  Level Estimated
11:28PM 27.6603 111.5972 297° West  Level Estimated
11:29PM 27.6960 111.5163 297° West  Level Estimated
11:30PM 27.7317 111.4353 296° West  Level Estimated
11:31PM 27.7673 111.3542 296° West  Level Estimated
11:32PM 27.8029 111.2732 296° West  Level Estimated
11:33PM 27.8384 111.1920 296° West  Level Estimated
11:34PM 27.8739 111.1108 296° West  Level Estimated
11:35PM 27.9094 111.0296 296° West  Level Estimated
11:36PM 27.9448 110.9483 296° West  Level Estimated
11:37PM 27.9801 110.8670 296° West  Level Estimated
11:38PM 28.0154 110.7856 296° West  Level Estimated
11:39PM 28.0507 110.7041 296° West  Level Estimated
11:40PM 28.0859 110.6226 296° West  Level Estimated
11:41PM 28.1210 110.5411 296° West  Level Estimated
11:42PM 28.1561 110.4594 296° West  Level Estimated
11:43PM 28.1912 110.3778 296° West  Level Estimated
11:44PM 28.2262 110.2961 296° West  Level Estimated
11:45PM 28.2612 110.2143 296° West  Level Estimated
11:46PM 28.2961 110.1325 296° West  Level Estimated
11:47PM 28.3309 110.0506 296° West  Level Estimated
11:48PM 28.3658 109.9687 296° West  Level Estimated
11:49PM 28.4005 109.8867 296° West  Level Estimated
11:50PM 28.4352 109.8046 296° West  Level Estimated
11:51PM 28.4699 109.7225 296° West  Level Estimated
11:52PM 28.5045 109.6404 296° West  Level Estimated
11:53PM 28.5391 109.5582 296° West  Level Estimated
11:54PM 28.5736 109.4759 296° West  Level Estimated
11:55PM 28.6081 109.3936 296° West  Level Estimated
11:56PM 28.6425 109.3112 295° West  Level Estimated
11:57PM 28.6769 109.2288 295° West  Level Estimated
11:58PM 28.7112 109.1463 295° West  Level Estimated
11:59PM 28.7455 109.0638 295° West  Level Estimated
12:00AM 28.7797 108.9812 295° West  Level Estimated
12:01AM 28.8139 108.8986 295° West  Level Estimated
12:02AM 28.8480 108.8159 295° West  Level Estimated
12:03AM 28.8821 108.7332 295° West  Level Estimated
12:04AM 28.9161 108.6504 295° West  Level Estimated
12:05AM 28.9501 108.5675 295° West  Level Estimated
12:06AM 28.9840 108.4846 295° West  Level Estimated
12:07AM 29.0178 108.4016 295° West  Level Estimated
12:08AM 29.0516 108.3186 295° West  Level Estimated
12:09AM 29.0854 108.2356 295° West  Level Estimated
12:10AM 29.1191 108.1524 295° West  Level Estimated
12:11AM 29.1528 108.0693 295° West  Level Estimated
12:12AM 29.1864 107.9860 295° West  Level Estimated
12:13AM 29.2200 107.9027 295° West  Level Estimated
12:14AM 29.2535 107.8194 295° West  Level Estimated
12:15AM 29.2869 107.7360 295° West  Level Estimated
12:16AM 29.3203 107.6525 295° West  Level Estimated
12:17AM 29.3537 107.5690 295° West  Level Estimated
12:18AM 29.3870 107.4855 295° West  Level Estimated
12:19AM 29.4202 107.4019 295° West  Level Estimated
12:20AM 29.4534 107.3182 295° West  Level Estimated
12:21AM 29.4866 107.2345 294° West  Level Estimated
12:22AM 29.5197 107.1507 294° West  Level Estimated
12:23AM 29.5527 107.0669 294° West  Level Estimated
12:24AM 29.5857 106.9830 294° West  Level Estimated
12:25AM 29.6186 106.8990 294° West  Level Estimated
12:26AM 29.6515 106.8150 294° West  Level Estimated
12:27AM 29.6843 106.7310 294° West  Level Estimated
12:28AM 29.7171 106.6469 294° West  Level Estimated
12:29AM 29.7194 106.6410 294° West  Level Estimated
12:30AM 29.7194 106.6410 North  Level Estimated
12:31AM 29.7194 106.6410 North  Level Estimated
12:32AM 29.7194 106.6410 North  Level Estimated
12:33AM 29.7194 106.6410 North  Level Estimated
12:34AM 29.7194 106.6410 North  Level Estimated
12:35AM 29.7194 106.6410 North  Level Estimated
12:36AM 29.7194 106.6410 North  Level Estimated